Time;durP1;ratioP1;P1;durP2;ratioP2;P2;SDS_P1;SDS_P2;PMS_P1;PMS_P2;Temp;Humidity;BMP_temperature;BMP_pressure;BME280_temperature;BME280_humidity;BME280_pressure;Samples;Min_cycle;Max_cycle;Signal;HPM_P1;HPM_P2
2023/09/29 00:02:17;;;;;;;6.60;6.00;;;20.50;99.90;;;;;;4962422;28;20527;-86
2023/09/29 00:04:47;;;;;;;10.40;6.00;;;20.60;99.90;;;;;;4958623;28;20456;-84
2023/09/29 00:07:21;;;;;;;6.47;5.87;;;20.60;99.90;;;;;;4956217;28;20498;-86
2023/09/29 00:09:49;;;;;;;8.60;6.37;;;20.90;99.90;;;;;;4951474;28;20578;-86
2023/09/29 00:12:19;;;;;;;9.23;6.37;;;20.90;99.90;;;;;;4946112;28;20543;-85
2023/09/29 00:14:52;;;;;;;7.00;5.80;;;21.00;99.90;;;;;;4954895;28;20465;-85
2023/09/29 00:17:20;;;;;;;6.60;5.97;;;20.90;99.90;;;;;;4977161;28;20479;-87
2023/09/29 00:19:48;;;;;;;7.50;6.90;;;20.80;99.90;;;;;;4978951;28;20693;-84
2023/09/29 00:22:22;;;;;;;8.37;6.77;;;21.20;99.90;;;;;;4969318;28;20452;-85
2023/09/29 00:24:56;;;;;;;6.77;5.80;;;21.00;99.90;;;;;;4953411;28;20453;-86
2023/09/29 00:27:31;;;;;;;9.00;6.93;;;20.90;99.90;;;;;;4960491;28;21716;-86
2023/09/29 00:30:01;;;;;;;7.43;6.10;;;20.90;99.90;;;;;;4957098;28;20551;-88
2023/09/29 00:32:30;;;;;;;6.70;6.10;;;20.90;99.90;;;;;;4952260;28;20472;-84
2023/09/29 00:35:01;;;;;;;6.83;6.20;;;21.00;99.90;;;;;;4952873;28;20458;-85
2023/09/29 00:37:30;;;;;;;8.40;6.50;;;20.60;99.90;;;;;;4955078;28;20508;-83
2023/09/29 00:39:57;;;;;;;6.90;6.30;;;20.70;99.90;;;;;;4950255;28;20465;-85
2023/09/29 00:42:26;;;;;;;7.13;6.43;;;20.50;99.90;;;;;;4949857;28;20463;-85
2023/09/29 00:44:55;;;;;;;7.70;6.10;;;20.80;99.90;;;;;;4953438;28;20483;-86
2023/09/29 00:47:28;;;;;;;6.87;5.90;;;20.40;99.90;;;;;;4960329;28;20490;-87
2023/09/29 00:49:56;;;;;;;7.23;5.30;;;20.60;99.90;;;;;;4954154;28;20468;-85
2023/09/29 00:52:23;;;;;;;8.10;5.43;;;20.60;99.90;;;;;;4950849;28;22277;-84
2023/09/29 00:54:54;;;;;;;6.70;6.03;;;20.40;99.90;;;;;;4952205;28;20519;-84
2023/09/29 00:57:29;;;;;;;5.83;5.30;;;20.60;99.90;;;;;;4955839;28;20496;-85
2023/09/29 01:00:08;;;;;;;6.50;5.57;;;20.40;99.90;;;;;;4961085;28;20560;-84
2023/09/29 01:02:37;;;;;;;8.60;5.40;;;20.40;99.90;;;;;;4950972;28;20465;-85
2023/09/29 01:05:05;;;;;;;6.20;5.60;;;20.80;99.90;;;;;;4982823;28;20924;-86
2023/09/29 01:07:32;;;;;;;7.30;6.10;;;20.70;99.90;;;;;;4951213;28;20489;-84
2023/09/29 01:10:11;;;;;;;7.90;6.23;;;20.50;99.90;;;;;;4968486;28;20471;-86
2023/09/29 01:12:43;;;;;;;6.43;5.83;;;20.50;99.90;;;;;;4989903;28;20469;-85
2023/09/29 01:15:17;;;;;;;7.83;6.77;;;20.80;99.90;;;;;;4970618;28;20503;-85
2023/09/29 01:17:52;;;;;;;6.80;6.13;;;20.50;99.90;;;;;;4967695;28;20466;-86
2023/09/29 01:20:29;;;;;;;6.93;6.23;;;20.40;99.90;;;;;;4971910;28;21024;-87
2023/09/29 01:23:01;;;;;;;8.43;6.30;;;20.30;99.90;;;;;;4967713;28;20458;-85
2023/09/29 01:25:38;;;;;;;5.73;5.17;;;20.20;99.90;;;;;;4961683;28;20469;-85
2023/09/29 01:28:07;;;;;;;7.47;5.67;;;20.10;99.90;;;;;;4962808;28;20537;-85
2023/09/29 01:30:37;;;;;;;6.43;5.87;;;20.10;99.90;;;;;;4971506;28;20522;-85
2023/09/29 01:33:08;;;;;;;7.10;6.50;;;20.10;99.90;;;;;;4968423;28;20495;-85
2023/09/29 01:35:38;;;;;;;7.80;6.80;;;20.10;99.90;;;;;;4966924;28;20455;-85
2023/09/29 01:38:12;;;;;;;7.03;6.33;;;20.10;99.90;;;;;;4967162;28;20468;-87
2023/09/29 01:40:45;;;;;;;5.70;5.20;;;20.20;99.90;;;;;;4974593;28;20456;-87
2023/09/29 01:43:26;;;;;;;6.70;5.33;;;20.10;99.90;;;;;;4974949;28;20470;-86
2023/09/29 01:46:00;;;;;;;9.00;6.57;;;20.20;99.90;;;;;;4974516;28;21311;-83
2023/09/29 01:48:30;;;;;;;6.03;5.50;;;20.00;99.90;;;;;;4969220;28;20487;-84
2023/09/29 01:51:02;;;;;;;6.30;5.70;;;20.10;99.90;;;;;;5065165;23;20661;-85
2023/09/29 01:53:45;;;;;;;6.43;5.80;;;20.10;99.90;;;;;;4970975;28;20559;-88
2023/09/29 01:56:12;;;;;;;5.50;5.03;;;20.30;99.90;;;;;;4973205;28;21156;-84
2023/09/29 01:58:45;;;;;;;6.57;5.50;;;20.30;99.90;;;;;;4970065;28;20453;-85
2023/09/29 02:01:14;;;;;;;5.97;5.47;;;20.30;99.90;;;;;;4949456;28;20447;-85
2023/09/29 02:03:52;;;;;;;5.57;5.00;;;20.30;99.90;;;;;;4960889;28;20445;-85
2023/09/29 02:06:23;;;;;;;7.33;5.90;;;20.30;99.90;;;;;;4961919;28;20480;-86
2023/09/29 02:09:01;;;;;;;6.17;5.57;;;20.40;99.90;;;;;;4945265;28;20496;-85
2023/09/29 02:11:30;;;;;;;7.23;5.57;;;20.30;99.90;;;;;;4959642;28;20448;-85
2023/09/29 02:14:09;;;;;;;6.63;5.63;;;20.20;99.90;;;;;;4957071;28;20463;-87
2023/09/29 02:16:45;;;;;;;5.77;5.17;;;20.20;99.90;;;;;;4955197;28;20477;-87
2023/09/29 02:19:16;;;;;;;6.50;5.50;;;20.30;99.90;;;;;;4956524;28;20476;-85
2023/09/29 02:21:47;;;;;;;6.67;5.67;;;20.40;99.90;;;;;;4952285;28;20459;-84
2023/09/29 02:24:17;;;;;;;7.00;6.07;;;20.50;99.90;;;;;;4948060;28;21068;-88
2023/09/29 02:26:55;;;;;;;5.77;5.27;;;20.20;99.90;;;;;;4954739;28;20661;-85
2023/09/29 02:29:23;;;;;;;6.10;5.50;;;20.20;99.90;;;;;;4953793;28;20455;-86
2023/09/29 02:31:55;;;;;;;9.50;5.70;;;20.20;99.90;;;;;;4948084;28;20529;-87
2023/09/29 02:34:28;;;;;;;7.50;5.77;;;20.30;99.90;;;;;;4939945;28;20441;-86
2023/09/29 02:36:59;;;;;;;6.20;5.50;;;20.20;99.90;;;;;;4950903;28;20547;-87
2023/09/29 02:39:27;;;;;;;5.73;5.23;;;20.20;99.90;;;;;;4957202;28;20462;-86
2023/09/29 02:41:56;;;;;;;5.73;5.23;;;20.20;99.90;;;;;;4953360;28;20504;-85
2023/09/29 02:44:30;;;;;;;5.57;5.07;;;20.20;99.90;;;;;;4953542;28;20457;-86
2023/09/29 02:47:02;;;;;;;6.70;5.07;;;20.20;99.90;;;;;;4939832;28;20586;-87
2023/09/29 02:49:33;;;;;;;8.00;5.33;;;20.30;99.90;;;;;;4957970;28;20450;-88
2023/09/29 02:52:04;;;;;;;6.43;5.07;;;20.40;99.90;;;;;;4946891;28;20838;-84
2023/09/29 02:54:39;;;;;;;6.37;4.80;;;20.00;99.90;;;;;;4960345;28;20496;-86
2023/09/29 02:57:09;;;;;;;5.67;5.07;;;19.90;99.90;;;;;;4961117;28;20504;-87
2023/09/29 02:59:44;;;;;;;5.03;4.63;;;20.10;99.90;;;;;;4960604;28;20459;-87
2023/09/29 03:02:14;;;;;;;4.93;4.43;;;19.90;99.90;;;;;;4955515;28;20458;-85
2023/09/29 03:04:43;;;;;;;8.27;4.80;;;19.80;99.90;;;;;;4958559;28;20488;-86
2023/09/29 03:07:13;;;;;;;6.17;4.97;;;20.10;99.90;;;;;;4946368;28;20519;-86
2023/09/29 03:09:43;;;;;;;9.67;4.37;;;20.20;99.90;;;;;;4974401;28;20464;-86
2023/09/29 03:12:16;;;;;;;5.90;4.67;;;20.30;99.90;;;;;;4968580;28;20472;-86
2023/09/29 03:14:47;;;;;;;5.23;4.80;;;20.30;99.90;;;;;;4954049;28;20550;-87
2023/09/29 03:17:15;;;;;;;5.57;4.80;;;20.20;99.90;;;;;;4943792;28;20476;-87
2023/09/29 03:19:43;;;;;;;8.77;4.97;;;20.20;99.90;;;;;;4941409;28;20541;-85
2023/09/29 03:22:13;;;;;;;5.13;4.73;;;20.30;99.90;;;;;;4941047;28;20474;-84
2023/09/29 03:24:40;;;;;;;4.93;4.50;;;20.10;99.90;;;;;;4947729;28;21916;-85
2023/09/29 03:27:08;;;;;;;4.70;4.30;;;20.20;99.90;;;;;;4937149;28;20527;-86
2023/09/29 03:29:35;;;;;;;7.30;5.20;;;20.10;99.90;;;;;;4942100;28;20539;-84
2023/09/29 03:32:08;;;;;;;4.20;3.90;;;20.10;99.90;;;;;;4941739;28;20454;-87
2023/09/29 03:34:37;;;;;;;5.23;4.40;;;20.20;99.90;;;;;;4947170;28;20554;-86
2023/09/29 03:37:07;;;;;;;4.87;3.93;;;20.20;99.90;;;;;;4949972;28;20587;-84
2023/09/29 03:39:41;;;;;;;7.47;5.27;;;20.40;99.90;;;;;;4948538;28;20560;-85
2023/09/29 03:42:13;;;;;;;5.23;4.73;;;19.90;99.90;;;;;;4944177;28;20473;-85
2023/09/29 03:44:44;;;;;;;4.80;4.13;;;20.00;99.90;;;;;;4945956;28;21334;-86
2023/09/29 03:47:12;;;;;;;4.60;4.20;;;19.90;99.90;;;;;;4950246;28;20476;-86
2023/09/29 03:49:57;;;;;;;6.33;4.40;;;20.00;99.90;;;;;;4961486;28;20456;-86
2023/09/29 03:52:25;;;;;;;5.07;4.57;;;20.10;99.90;;;;;;4948298;28;20565;-86
2023/09/29 03:54:52;;;;;;;5.30;4.80;;;20.20;99.90;;;;;;4948401;28;20547;-85
2023/09/29 03:57:19;;;;;;;5.90;4.53;;;20.30;99.90;;;;;;4957775;28;20477;-86
2023/09/29 03:59:49;;;;;;;4.50;4.20;;;20.10;99.90;;;;;;4955969;28;21755;-85
2023/09/29 04:02:17;;;;;;;4.80;4.40;;;20.30;99.90;;;;;;4935248;28;20463;-84
2023/09/29 04:04:50;;;;;;;8.07;4.97;;;20.40;99.90;;;;;;4965759;28;20536;-86
2023/09/29 04:07:18;;;;;;;6.47;4.37;;;20.20;99.90;;;;;;4953676;28;20611;-87
2023/09/29 04:09:47;;;;;;;5.17;4.70;;;20.20;99.90;;;;;;4954354;28;20464;-85
2023/09/29 04:12:18;;;;;;;5.17;4.70;;;20.10;99.90;;;;;;4965355;28;20457;-86
2023/09/29 04:14:56;;;;;;;5.80;4.53;;;20.20;99.90;;;;;;4968612;28;20459;-86
2023/09/29 04:17:29;;;;;;;5.10;4.60;;;20.10;99.90;;;;;;4960615;28;20971;-84
2023/09/29 04:19:56;;;;;;;4.93;4.17;;;20.10;99.90;;;;;;4948852;28;20492;-84
2023/09/29 04:22:28;;;;;;;4.70;4.30;;;20.50;99.90;;;;;;4949389;28;20452;-84
2023/09/29 04:24:56;;;;;;;5.47;4.90;;;20.20;99.90;;;;;;4960403;28;20536;-84
2023/09/29 04:27:30;;;;;;;6.13;5.53;;;20.10;99.90;;;;;;4953671;28;20496;-84
2023/09/29 04:30:06;;;;;;;8.23;5.00;;;20.10;99.90;;;;;;4953105;28;20570;-86
2023/09/29 04:32:39;;;;;;;5.80;5.20;;;20.20;99.90;;;;;;4954684;28;20489;-83
2023/09/29 04:35:10;;;;;;;5.30;4.90;;;20.20;99.90;;;;;;4955120;28;20464;-85
2023/09/29 04:37:37;;;;;;;4.70;4.30;;;20.10;99.90;;;;;;4955041;28;20483;-85
2023/09/29 04:40:07;;;;;;;6.93;4.80;;;20.30;99.90;;;;;;4962549;28;22138;-87
2023/09/29 04:42:34;;;;;;;4.77;4.37;;;20.20;99.90;;;;;;4954805;28;22275;-84
2023/09/29 04:45:04;;;;;;;5.63;5.13;;;20.10;99.90;;;;;;4948369;28;20472;-85
2023/09/29 04:47:31;;;;;;;6.27;5.67;;;20.10;99.90;;;;;;4957996;28;20494;-88
2023/09/29 04:50:05;;;;;;;8.43;5.17;;;20.00;99.90;;;;;;4958947;28;20519;-88
2023/09/29 04:52:35;;;;;;;6.47;5.27;;;19.90;99.90;;;;;;4957922;28;20464;-86
2023/09/29 04:55:04;;;;;;;7.40;5.63;;;19.80;99.90;;;;;;4964482;28;21407;-86
2023/09/29 04:57:34;;;;;;;9.63;6.70;;;19.80;99.90;;;;;;4961228;28;20469;-88
2023/09/29 05:00:10;;;;;;;5.87;5.27;;;19.90;99.90;;;;;;4973262;28;20510;-87
2023/09/29 05:02:40;;;;;;;8.03;4.30;;;20.10;99.90;;;;;;4973913;28;20698;-88
2023/09/29 05:05:08;;;;;;;6.23;4.77;;;20.00;99.90;;;;;;4974337;28;20519;-85
2023/09/29 05:07:37;;;;;;;5.83;5.17;;;20.10;99.90;;;;;;4974466;28;20492;-87
2023/09/29 05:10:08;;;;;;;5.60;4.70;;;20.10;99.90;;;;;;4974730;28;20485;-84
2023/09/29 05:12:37;;;;;;;4.93;4.50;;;20.00;99.90;;;;;;4991463;28;20463;-84
2023/09/29 05:15:05;;;;;;;4.93;4.50;;;20.10;99.90;;;;;;4973067;28;20524;-87
2023/09/29 05:17:36;;;;;;;4.60;4.00;;;20.00;99.90;;;;;;4971887;28;20484;-85
2023/09/29 05:20:10;;;;;;;8.23;5.57;;;19.90;99.90;;;;;;4973482;28;20440;-86
2023/09/29 05:22:41;;;;;;;5.07;4.67;;;19.90;99.90;;;;;;4959385;28;20955;-85
2023/09/29 05:25:10;;;;;;;4.90;4.40;;;19.80;99.90;;;;;;4950756;28;20459;-84
2023/09/29 05:27:37;;;;;;;5.53;4.47;;;19.90;99.90;;;;;;4950928;28;20476;-84
2023/09/29 05:30:04;;;;;;;7.30;4.77;;;20.00;99.90;;;;;;4953214;28;20452;-83
2023/09/29 05:32:34;;;;;;;4.60;4.20;;;19.90;99.90;;;;;;4951039;28;20452;-85
2023/09/29 05:35:04;;;;;;;4.80;4.37;;;19.90;99.90;;;;;;4998576;23;20449;-85
2023/09/29 05:37:32;;;;;;;5.03;4.50;;;20.00;99.90;;;;;;4931454;28;20505;-84
2023/09/29 05:40:03;;;;;;;4.83;4.30;;;20.20;99.90;;;;;;4937831;28;20470;-85
2023/09/29 05:42:43;;;;;;;5.50;4.73;;;20.20;99.90;;;;;;4964437;23;20488;-85
2023/09/29 05:45:24;;;;;;;4.57;4.17;;;20.20;99.90;;;;;;5151123;23;21018;-84
2023/09/29 05:47:59;;;;;;;4.70;4.30;;;20.20;99.90;;;;;;4972223;23;20509;-85
2023/09/29 05:50:45;;;;;;;4.83;4.33;;;20.20;99.90;;;;;;4978722;28;20446;-86
2023/09/29 05:53:20;;;;;;;4.77;4.10;;;20.10;99.90;;;;;;4988156;28;20447;-85
2023/09/29 05:55:49;;;;;;;4.63;4.03;;;20.40;99.90;;;;;;4989972;28;20491;-85
2023/09/29 05:58:17;;;;;;;3.90;3.50;;;20.00;99.90;;;;;;4990650;28;20527;-86
2023/09/29 06:01:01;;;;;;;8.80;4.23;;;20.20;99.90;;;;;;4990244;28;20511;-86
2023/09/29 06:03:33;;;;;;;5.67;4.20;;;20.10;99.90;;;;;;4988669;28;20452;-87
2023/09/29 06:06:11;;;;;;;6.30;4.30;;;20.10;99.90;;;;;;4994444;28;20493;-84
2023/09/29 06:08:44;;;;;;;4.73;4.33;;;20.10;99.90;;;;;;4974174;28;20529;-84
2023/09/29 06:11:21;;;;;;;4.37;4.00;;;20.30;99.90;;;;;;4971082;28;20448;-84
2023/09/29 06:14:02;;;;;;;7.43;4.03;;;20.20;99.90;;;;;;4970194;28;20452;-83
2023/09/29 06:16:30;;;;;;;4.43;4.03;;;20.20;99.90;;;;;;4967863;28;20475;-84
2023/09/29 06:19:06;;;;;;;4.10;3.70;;;20.60;99.90;;;;;;4966363;28;20983;-87
2023/09/29 06:21:34;;;;;;;4.47;4.00;;;20.30;99.90;;;;;;4962501;28;20468;-85
2023/09/29 06:24:10;;;;;;;4.53;3.93;;;20.70;99.90;;;;;;4963291;28;20457;-84
2023/09/29 06:26:44;;;;;;;4.63;4.10;;;20.50;99.90;;;;;;4964446;28;20487;-85
2023/09/29 06:29:14;;;;;;;4.60;4.20;;;20.60;99.90;;;;;;4966550;28;21003;-82
2023/09/29 06:31:44;;;;;;;4.20;3.80;;;20.50;99.90;;;;;;4965760;28;20515;-83
2023/09/29 06:34:12;;;;;;;5.30;4.23;;;20.50;99.90;;;;;;4963027;28;21622;-85
2023/09/29 06:36:43;;;;;;;4.33;3.93;;;20.60;99.90;;;;;;4956709;28;20503;-85
2023/09/29 06:39:20;;;;;;;5.00;4.03;;;20.80;99.90;;;;;;4950957;28;20471;-85
2023/09/29 06:41:56;;;;;;;5.33;4.13;;;20.90;99.90;;;;;;4962186;28;20461;-84
2023/09/29 06:44:35;;;;;;;4.23;3.80;;;20.90;99.90;;;;;;4959754;28;20523;-83
2023/09/29 06:47:10;;;;;;;4.07;3.77;;;21.00;99.90;;;;;;4971888;28;20486;-85
2023/09/29 06:49:49;;;;;;;7.40;3.90;;;21.00;99.90;;;;;;4965701;28;22168;-85
2023/09/29 06:52:19;;;;;;;5.07;4.10;;;21.00;99.90;;;;;;4963165;28;20514;-87
2023/09/29 06:54:49;;;;;;;4.13;3.73;;;21.00;99.90;;;;;;4964487;28;20508;-85
2023/09/29 06:57:21;;;;;;;4.07;3.77;;;20.90;99.90;;;;;;4962047;28;21413;-85
2023/09/29 06:59:58;;;;;;;9.43;4.17;;;20.70;99.90;;;;;;4961339;28;20467;-86
2023/09/29 07:02:40;;;;;;;4.43;3.97;;;20.60;99.90;;;;;;4959395;28;20457;-86
2023/09/29 07:05:18;;;;;;;4.30;3.40;;;20.70;99.90;;;;;;4958391;28;20457;-85
2023/09/29 07:07:47;;;;;;;4.63;3.77;;;20.60;99.90;;;;;;4961112;28;20464;-87
2023/09/29 07:10:18;;;;;;;5.50;3.60;;;20.70;99.90;;;;;;4961676;28;20478;-85
2023/09/29 07:12:46;;;;;;;4.83;3.77;;;20.80;99.90;;;;;;4959357;28;20523;-87
2023/09/29 07:15:13;;;;;;;4.93;3.50;;;20.90;99.90;;;;;;4959286;28;20491;-86
2023/09/29 07:17:50;;;;;;;4.90;4.27;;;20.80;99.90;;;;;;4963021;28;20499;-86
2023/09/29 07:20:18;;;;;;;4.40;4.03;;;20.90;99.90;;;;;;4964240;28;20816;-86
2023/09/29 07:23:03;;;;;;;4.30;3.90;;;21.00;99.90;;;;;;4959977;28;21106;-85
2023/09/29 07:25:37;;;;;;;4.40;4.10;;;21.00;99.90;;;;;;4958163;28;20482;-86
2023/09/29 07:28:11;;;;;;;5.60;3.97;;;21.00;99.90;;;;;;4959725;28;20595;-87
2023/09/29 07:30:41;;;;;;;4.43;3.93;;;21.20;99.90;;;;;;4960928;28;20670;-86
2023/09/29 07:33:18;;;;;;;4.57;3.50;;;21.60;99.90;;;;;;4967263;28;20522;-86
2023/09/29 07:35:54;;;;;;;4.33;3.37;;;21.70;99.90;;;;;;4977666;28;20460;-87
2023/09/29 07:38:21;;;;;;;4.43;3.40;;;21.60;99.90;;;;;;4978488;28;20531;-85
2023/09/29 07:40:54;;;;;;;5.70;3.93;;;22.10;99.90;;;;;;4970895;28;20460;-87
2023/09/29 07:43:23;;;;;;;4.33;3.57;;;22.20;99.90;;;;;;4967480;28;20464;-84
2023/09/29 07:45:54;;;;;;;5.40;4.03;;;22.60;99.90;;;;;;4958557;28;20491;-85
2023/09/29 07:48:37;;;;;;;4.13;3.73;;;22.50;99.90;;;;;;4965902;28;20503;-83
2023/09/29 07:51:08;;;;;;;6.67;3.87;;;22.10;99.90;;;;;;4970239;28;20484;-85
2023/09/29 07:53:41;;;;;;;3.43;3.13;;;21.90;99.90;;;;;;4967886;28;20455;-86
2023/09/29 07:56:16;;;;;;;6.20;3.50;;;21.80;99.90;;;;;;4966411;28;20506;-85
2023/09/29 07:58:43;;;;;;;3.57;3.13;;;21.60;99.90;;;;;;4980021;28;21681;-85
2023/09/29 08:01:16;;;;;;;3.40;2.90;;;21.50;99.90;;;;;;4963827;28;20464;-85
2023/09/29 08:03:53;;;;;;;3.90;3.60;;;21.80;99.90;;;;;;4959947;28;20460;-84
2023/09/29 08:06:35;;;;;;;3.70;3.40;;;22.40;99.90;;;;;;4959207;28;20928;-87
2023/09/29 08:09:06;;;;;;;5.20;3.80;;;22.40;99.90;;;;;;4972317;28;20486;-86
2023/09/29 08:11:50;;;;;;;4.50;3.53;;;22.40;99.90;;;;;;4959212;28;21665;-87
2023/09/29 08:14:18;;;;;;;3.70;3.30;;;22.50;99.90;;;;;;4963271;28;20463;-86
2023/09/29 08:16:47;;;;;;;5.60;3.23;;;22.60;99.90;;;;;;4962785;28;20500;-84
2023/09/29 08:19:17;;;;;;;6.77;3.90;;;22.80;99.90;;;;;;4957271;28;20465;-85
2023/09/29 08:21:48;;;;;;;4.87;3.80;;;22.80;99.90;;;;;;4960549;28;20536;-86
2023/09/29 08:24:18;;;;;;;3.60;3.30;;;22.80;99.90;;;;;;4964174;28;20468;-86
2023/09/29 08:26:45;;;;;;;4.13;3.67;;;22.80;99.90;;;;;;4965005;28;20484;-86
2023/09/29 08:29:16;;;;;;;5.37;3.60;;;22.70;99.90;;;;;;4962794;28;20756;-87
2023/09/29 08:31:43;;;;;;;4.73;3.87;;;22.70;99.90;;;;;;4963228;28;20543;-85
2023/09/29 08:34:13;;;;;;;5.60;3.50;;;22.90;99.90;;;;;;4962933;28;21212;-86
2023/09/29 08:36:43;;;;;;;4.10;3.60;;;22.90;99.90;;;;;;4964562;28;20479;-86
2023/09/29 08:39:36;;;;;;;;;;;;;;;;;;;;;
2023/09/29 08:42:37;;;;;;;4.87;3.83;;;22.90;99.90;;;;;;4967303;28;20452;-84
2023/09/29 08:49:09;;;;;;;4.57;3.53;;;22.90;99.90;;;;;;4931999;29;20531;-85
2023/09/29 08:56:01;;;;;;;4.10;3.30;;;23.00;99.90;;;;;;4887827;29;20456;-85
2023/09/29 08:59:25;;;;;;;4.73;3.80;;;23.00;99.90;;;;;;4876913;29;20493;-85
2023/09/29 09:02:19;;;;;;;5.73;3.10;;;23.00;99.90;;;;;;4861296;29;21771;-86
2023/09/29 09:09:00;;;;;;;4.60;3.60;;;23.20;99.80;;;;;;4813924;29;20486;-86
2023/09/29 09:12:08;;;;;;;4.33;3.60;;;23.50;99.70;;;;;;4778282;29;20539;-86
2023/09/29 09:15:12;;;;;;;6.80;3.50;;;23.70;99.10;;;;;;4817710;29;20474;-86
2023/09/29 09:17:50;;;;;;;5.00;3.27;;;23.80;98.70;;;;;;4990002;23;20497;-84
2023/09/29 09:20:41;;;;;;;5.97;3.60;;;23.70;98.50;;;;;;4970214;28;20513;-84
2023/09/29 09:24:12;;;;;;;4.87;3.80;;;24.10;98.50;;;;;;4972096;28;20499;-87
2023/09/29 09:27:27;;;;;;;3.77;3.47;;;24.30;97.40;;;;;;4948590;28;20495;-84
2023/09/29 09:30:20;;;;;;;4.07;3.43;;;24.60;96.50;;;;;;4946467;28;20487;-85
2023/09/29 09:33:25;;;;;;;5.20;3.87;;;24.50;96.20;;;;;;4932336;28;20458;-88
2023/09/29 09:36:15;;;;;;;4.63;3.50;;;24.40;96.50;;;;;;4961059;28;20535;-87
2023/09/29 09:39:02;;;;;;;4.20;3.10;;;25.10;95.90;;;;;;4969117;28;20449;-85
2023/09/29 09:45:29;;;;;;;5.50;3.10;;;27.90;88.70;;;;;;4925660;28;20437;-90
2023/09/29 09:48:28;;;;;;;5.27;4.53;;;27.40;88.70;;;;;;4952934;28;20948;-87
2023/09/29 09:51:54;;;;;;;4.10;3.03;;;27.30;89.90;;;;;;4953440;28;20481;-87
2023/09/29 09:55:09;;;;;;;3.67;3.17;;;27.70;89.20;;;;;;4948563;28;20441;-86
2023/09/29 09:58:22;;;;;;;4.80;3.40;;;27.30;89.00;;;;;;4976017;23;20514;-84
2023/09/29 10:01:37;;;;;;;4.23;3.50;;;27.20;89.00;;;;;;4977418;28;20579;-89
2023/09/29 10:05:04;;;;;;;3.00;2.70;;;26.10;91.50;;;;;;4946673;28;20436;-89
2023/09/29 10:08:06;;;;;;;3.53;2.70;;;25.50;92.30;;;;;;4940682;28;20476;-87
2023/09/29 10:11:15;;;;;;;4.30;2.77;;;25.50;92.20;;;;;;4948060;28;21091;-86
2023/09/29 10:13:47;;;;;;;2.93;2.73;;;25.90;91.40;;;;;;4944029;28;20502;-86
2023/09/29 10:16:28;;;;;;;4.43;2.30;;;26.10;90.60;;;;;;4949138;28;20512;-85
2023/09/29 10:19:05;;;;;;;2.90;2.60;;;26.10;90.70;;;;;;4929081;28;20564;-86
2023/09/29 10:21:45;;;;;;;3.40;3.10;;;26.00;90.60;;;;;;4948868;28;20551;-86
2023/09/29 10:24:31;;;;;;;4.33;2.50;;;25.70;91.10;;;;;;4957954;28;20895;-84
2023/09/29 10:27:11;;;;;;;2.50;2.27;;;25.30;91.60;;;;;;4949060;28;20508;-85
2023/09/29 10:29:38;;;;;;;3.50;2.17;;;25.00;92.10;;;;;;4949050;28;20481;-85
2023/09/29 10:32:15;;;;;;;3.60;2.50;;;24.70;92.60;;;;;;4951612;28;20463;-86
2023/09/29 10:34:49;;;;;;;3.60;2.50;;;24.40;93.00;;;;;;4954646;28;20473;-84
2023/09/29 10:37:28;;;;;;;2.00;1.90;;;24.20;93.60;;;;;;4942176;28;22370;-86
2023/09/29 10:40:07;;;;;;;4.17;2.07;;;24.20;94.00;;;;;;4943480;28;20473;-86
2023/09/29 10:42:39;;;;;;;5.60;2.57;;;23.90;94.10;;;;;;4936892;28;20993;-84
2023/09/29 10:45:37;;;;;;;3.20;2.20;;;23.80;94.50;;;;;;4933961;28;20477;-85
2023/09/29 10:48:23;;;;;;;5.00;2.40;;;23.70;94.40;;;;;;4939123;28;20473;-86
2023/09/29 10:51:04;;;;;;;4.67;2.67;;;23.60;94.60;;;;;;4936493;28;20525;-86
2023/09/29 10:53:40;;;;;;;3.30;2.50;;;23.60;94.60;;;;;;4941289;28;20568;-85
2023/09/29 10:56:09;;;;;;;5.50;3.27;;;24.00;94.30;;;;;;4942040;28;20472;-88
2023/09/29 10:58:39;;;;;;;4.73;2.90;;;24.60;93.10;;;;;;4940092;28;20564;-89
2023/09/29 11:01:25;;;;;;;4.60;3.30;;;24.90;92.40;;;;;;4960203;28;20552;-87
2023/09/29 11:04:12;;;;;;;6.30;3.67;;;25.10;91.20;;;;;;4966787;28;20433;-88
2023/09/29 11:06:49;;;;;;;8.80;4.40;;;25.10;90.30;;;;;;4956152;28;20472;-88
2023/09/29 11:09:41;;;;;;;9.50;5.93;;;24.90;90.40;;;;;;4958158;28;20688;-86
2023/09/29 11:12:23;;;;;;;6.07;3.60;;;25.00;90.30;;;;;;4951951;28;20520;-84
2023/09/29 11:15:08;;;;;;;7.40;4.13;;;25.40;88.60;;;;;;4956627;28;20495;-83
2023/09/29 11:17:50;;;;;;;8.60;4.60;;;25.60;87.00;;;;;;4955768;28;21194;-85
2023/09/29 11:20:26;;;;;;;8.30;5.43;;;25.90;83.30;;;;;;4952542;28;20460;-85
2023/09/29 11:23:11;;;;;;;6.70;4.50;;;26.20;81.40;;;;;;4951937;28;20449;-85
2023/09/29 11:25:58;;;;;;;9.40;4.97;;;26.40;79.60;;;;;;4952105;28;20468;-86
2023/09/29 11:28:26;;;;;;;9.83;5.27;;;27.40;74.70;;;;;;4954931;28;20701;-85
2023/09/29 11:30:54;;;;;;;8.70;5.20;;;27.10;74.90;;;;;;4950116;28;20597;-88
2023/09/29 11:33:22;;;;;;;7.27;4.33;;;27.60;73.70;;;;;;4945105;28;20552;-85
2023/09/29 11:35:50;;;;;;;11.93;5.00;;;27.30;73.10;;;;;;4945114;28;20484;-86
2023/09/29 11:38:33;;;;;;;8.83;4.70;;;26.90;74.80;;;;;;4947147;28;20445;-86
2023/09/29 11:41:00;;;;;;;11.10;6.07;;;27.00;74.30;;;;;;4959472;28;20456;-87
2023/09/29 11:43:28;;;;;;;9.50;5.50;;;26.70;73.50;;;;;;4967885;28;20504;-86
2023/09/29 11:45:55;;;;;;;10.10;5.90;;;26.50;74.20;;;;;;4960816;28;20531;-84
2023/09/29 11:48:23;;;;;;;12.20;6.23;;;26.20;75.30;;;;;;4943370;28;20537;-84
2023/09/29 11:50:52;;;;;;;13.20;5.67;;;26.20;75.80;;;;;;4937417;28;20519;-87
2023/09/29 11:53:20;;;;;;;10.10;4.97;;;26.10;76.30;;;;;;4960877;28;20777;-84
2023/09/29 11:55:48;;;;;;;10.83;6.33;;;26.30;75.30;;;;;;4950251;28;20472;-87
2023/09/29 11:58:15;;;;;;;9.17;5.60;;;26.70;73.10;;;;;;4936695;28;20483;-85
2023/09/29 12:00:42;;;;;;;10.47;5.70;;;26.40;74.10;;;;;;4936603;28;20466;-86
2023/09/29 12:03:10;;;;;;;10.70;4.67;;;26.20;73.60;;;;;;4942774;28;20559;-87
2023/09/29 12:05:40;;;;;;;9.60;5.40;;;26.20;74.00;;;;;;4942968;28;20464;-86
2023/09/29 12:08:07;;;;;;;6.57;4.80;;;26.40;72.40;;;;;;4938575;28;20465;-86
2023/09/29 12:10:35;;;;;;;7.50;3.93;;;26.00;73.80;;;;;;4940280;28;20516;-87
2023/09/29 12:13:04;;;;;;;8.43;4.27;;;25.80;75.20;;;;;;4941080;28;20597;-85
2023/09/29 12:15:32;;;;;;;5.70;3.77;;;25.70;76.20;;;;;;4940634;28;20481;-86
2023/09/29 12:18:00;;;;;;;5.97;3.50;;;25.70;77.20;;;;;;4940470;28;20475;-86
2023/09/29 12:20:28;;;;;;;7.90;3.80;;;25.80;77.30;;;;;;4939375;28;21178;-84
2023/09/29 12:23:01;;;;;;;8.00;4.43;;;25.70;77.90;;;;;;4946812;28;20567;-86
2023/09/29 12:25:28;;;;;;;8.00;4.40;;;25.70;78.20;;;;;;4943156;28;20461;-84
2023/09/29 12:27:56;;;;;;;6.40;4.03;;;26.00;77.40;;;;;;4939601;28;20464;-84
2023/09/29 12:30:24;;;;;;;4.40;3.00;;;25.90;77.00;;;;;;4940021;28;20580;-83
2023/09/29 12:32:52;;;;;;;6.70;4.23;;;25.80;77.80;;;;;;4944150;28;20482;-86
2023/09/29 12:35:20;;;;;;;6.53;3.37;;;25.70;77.70;;;;;;4943499;28;20539;-85
2023/09/29 12:37:47;;;;;;;6.80;4.10;;;25.60;78.10;;;;;;4951350;28;20477;-87
2023/09/29 12:40:16;;;;;;;7.70;4.13;;;25.80;78.30;;;;;;4961253;28;21488;-87
2023/09/29 12:42:48;;;;;;;6.20;3.87;;;26.00;76.90;;;;;;4973172;28;20444;-85
2023/09/29 12:45:21;;;;;;;7.03;3.73;;;25.60;78.40;;;;;;4971607;28;20461;-85
2023/09/29 12:47:50;;;;;;;12.07;3.57;;;25.40;79.20;;;;;;4971794;28;20484;-87
2023/09/29 12:50:18;;;;;;;8.43;4.83;;;25.30;80.00;;;;;;4970159;28;20512;-87
2023/09/29 12:52:45;;;;;;;8.10;4.80;;;25.10;80.80;;;;;;4959314;28;20627;-85
2023/09/29 12:55:15;;;;;;;6.50;4.37;;;25.00;81.80;;;;;;4956639;28;20564;-85
2023/09/29 12:57:43;;;;;;;6.37;3.60;;;25.20;81.40;;;;;;4957281;28;20491;-86
2023/09/29 13:00:18;;;;;;;5.30;3.50;;;25.30;81.40;;;;;;4955195;28;20448;-83
2023/09/29 13:02:49;;;;;;;6.23;4.27;;;25.20;81.90;;;;;;4951646;28;20514;-86
2023/09/29 13:05:17;;;;;;;7.37;3.80;;;24.90;83.20;;;;;;4948574;28;20477;-86
2023/09/29 13:07:49;;;;;;;5.17;3.07;;;24.90;83.80;;;;;;4950593;28;20514;-85
2023/09/29 13:10:18;;;;;;;8.17;3.83;;;24.80;84.90;;;;;;4953008;28;22128;-85
2023/09/29 13:12:51;;;;;;;4.57;2.93;;;24.60;85.70;;;;;;4952667;28;20544;-85
2023/09/29 13:15:19;;;;;;;5.73;3.93;;;24.60;86.70;;;;;;4949974;28;20465;-84
2023/09/29 13:17:47;;;;;;;5.43;3.77;;;24.50;87.50;;;;;;4953745;28;20480;-84
2023/09/29 13:20:32;;;;;;;5.23;3.03;;;24.40;88.00;;;;;;4963175;28;20991;-85
2023/09/29 13:23:12;;;;;;;11.53;4.40;;;24.40;90.20;;;;;;4952902;28;20464;-84
2023/09/29 13:25:41;;;;;;;4.63;2.87;;;24.30;90.70;;;;;;4950433;28;20457;-84
2023/09/29 13:28:09;;;;;;;5.70;3.07;;;24.40;91.30;;;;;;4949706;28;20480;-86
2023/09/29 13:30:36;;;;;;;7.50;3.10;;;24.20;91.80;;;;;;4951687;28;20555;-85
2023/09/29 13:33:19;;;;;;;5.90;2.80;;;24.00;93.20;;;;;;4952292;28;20552;-86
2023/09/29 13:35:46;;;;;;;4.87;2.90;;;24.20;94.40;;;;;;4964174;28;20484;-83
2023/09/29 13:38:15;;;;;;;4.43;2.53;;;23.70;94.90;;;;;;4947350;28;20552;-83
2023/09/29 13:40:42;;;;;;;6.30;2.87;;;23.70;95.30;;;;;;4948312;28;20853;-84
2023/09/29 13:43:09;;;;;;;7.80;4.60;;;23.70;95.50;;;;;;4949346;28;20472;-84